Time;durP1;ratioP1;P1;durP2;ratioP2;P2;SDS_P1;SDS_P2;PMS_P1;PMS_P2;Temp;Humidity;BMP_temperature;BMP_pressure;BME280_temperature;BME280_humidity;BME280_pressure;Samples;Min_cycle;Max_cycle;Signal;HPM_P1;HPM_P2
2021/06/22 00:00:33;;;;;;;6.90;3.10;;;;;;;;;;1497360;39;20032;-61
2021/06/22 00:01:36;;;;;;;6.45;3.20;;;;;;;;;;1497233;39;20027;-61
2021/06/22 00:02:38;;;;;;;7.72;3.42;;;;;;;;;;1497217;39;20307;-61
2021/06/22 00:03:38;;;;;;;7.43;3.25;;;;;;;;;;1497443;39;20112;-61
2021/06/22 00:04:40;;;;;;;8.45;3.55;;;;;;;;;;1497388;39;20039;-61
2021/06/22 00:05:41;;;;;;;7.13;3.40;;;;;;;;;;1497277;39;20031;-60
2021/06/22 00:06:43;;;;;;;7.65;3.42;;;;;;;;;;1497327;39;20027;-61
2021/06/22 00:07:44;;;;;;;4.72;3.20;;;;;;;;;;1497500;39;20030;-61
2021/06/22 00:08:46;;;;;;;6.70;3.25;;;;;;;;;;1497391;39;20063;-60
2021/06/22 00:09:47;;;;;;;5.85;3.20;;;;;;;;;;1497326;39;20027;-61
2021/06/22 00:10:49;;;;;;;4.72;3.10;;;;;;;;;;1497384;39;20410;-61
2021/06/22 00:11:50;;;;;;;7.45;3.33;;;;;;;;;;1497475;39;20031;-61
2021/06/22 00:12:53;;;;;;;8.40;3.90;;;;;;;;;;1497461;39;20039;-61
2021/06/22 00:13:53;;;;;;;6.28;3.38;;;;;;;;;;1497396;39;20023;-61
2021/06/22 00:14:55;;;;;;;7.97;3.53;;;;;;;;;;1497327;39;20387;-61
2021/06/22 00:15:56;;;;;;;5.43;2.90;;;;;;;;;;1497232;39;20027;-61
2021/06/22 00:16:59;;;;;;;6.85;3.13;;;;;;;;;;1497220;39;20104;-61
2021/06/22 00:18:00;;;;;;;7.45;3.13;;;;;;;;;;1497202;39;20031;-61
2021/06/22 00:19:02;;;;;;;6.63;2.95;;;;;;;;;;1497478;39;20038;-60
2021/06/22 00:20:05;;;;;;;6.53;3.80;;;;;;;;;;1497355;39;20034;-61
2021/06/22 00:21:07;;;;;;;8.00;3.65;;;;;;;;;;1497278;39;20398;-60
2021/06/22 00:22:08;;;;;;;8.35;3.70;;;;;;;;;;1497202;39;20314;-61
2021/06/22 00:23:09;;;;;;;5.00;3.22;;;;;;;;;;1497391;39;20024;-61
2021/06/22 00:24:10;;;;;;;5.40;3.35;;;;;;;;;;1497470;39;20024;-59
2021/06/22 00:25:16;;;;;;;7.07;3.58;;;;;;;;;;1497468;39;20031;-60
2021/06/22 00:26:17;;;;;;;6.53;3.28;;;;;;;;;;1497298;39;20306;-61
2021/06/22 00:27:18;;;;;;;6.75;3.22;;;;;;;;;;1497468;39;20030;-61
2021/06/22 00:28:19;;;;;;;5.35;3.20;;;;;;;;;;1497184;39;20024;-60
2021/06/22 00:29:23;;;;;;;7.38;2.92;;;;;;;;;;1497580;39;20024;-61
2021/06/22 00:30:24;;;;;;;5.95;3.60;;;;;;;;;;1497410;39;20111;-61
2021/06/22 00:31:26;;;;;;;6.28;3.20;;;;;;;;;;1497456;39;20035;-61
2021/06/22 00:32:28;;;;;;;7.22;3.67;;;;;;;;;;1497174;39;20333;-61
2021/06/22 00:33:30;;;;;;;7.72;3.25;;;;;;;;;;1497463;39;20039;-61
2021/06/22 00:34:31;;;;;;;8.38;3.10;;;;;;;;;;1497198;39;20322;-61
2021/06/22 00:35:33;;;;;;;7.18;3.50;;;;;;;;;;1497408;39;20039;-61
2021/06/22 00:36:33;;;;;;;5.38;2.97;;;;;;;;;;1497356;39;20028;-60
2021/06/22 00:37:35;;;;;;;6.15;3.35;;;;;;;;;;1497377;39;20035;-61
2021/06/22 00:38:37;;;;;;;7.60;3.30;;;;;;;;;;1497197;39;20066;-60
2021/06/22 00:39:38;;;;;;;5.20;3.15;;;;;;;;;;1497202;39;20031;-60
2021/06/22 00:40:40;;;;;;;8.65;3.25;;;;;;;;;;1497401;39;20100;-61
2021/06/22 00:41:41;;;;;;;7.22;3.47;;;;;;;;;;1497398;39;20059;-61
2021/06/22 00:42:45;;;;;;;8.05;3.30;;;;;;;;;;1497525;39;20375;-61
2021/06/22 00:43:46;;;;;;;5.07;3.15;;;;;;;;;;1497245;39;20391;-61
2021/06/22 00:44:49;;;;;;;6.45;3.20;;;;;;;;;;1497352;39;20027;-60
2021/06/22 00:45:50;;;;;;;7.90;3.40;;;;;;;;;;1497358;39;20023;-61
2021/06/22 00:46:51;;;;;;;5.50;3.25;;;;;;;;;;1497171;39;20357;-59
2021/06/22 00:47:54;;;;;;;6.90;3.55;;;;;;;;;;1497451;39;20034;-61
2021/06/22 00:48:55;;;;;;;8.18;3.42;;;;;;;;;;1497059;39;20039;-60
2021/06/22 00:49:56;;;;;;;6.82;3.00;;;;;;;;;;1497124;39;20038;-60
2021/06/22 00:50:59;;;;;;;8.27;3.20;;;;;;;;;;1497157;39;20080;-61
2021/06/22 00:51:59;;;;;;;9.23;2.97;;;;;;;;;;1497155;39;20045;-60
2021/06/22 00:53:02;;;;;;;8.07;3.38;;;;;;;;;;1497492;39;20050;-61
2021/06/22 00:54:03;;;;;;;8.38;3.47;;;;;;;;;;1497122;39;20035;-61
2021/06/22 00:55:12;;;;;;;6.53;3.20;;;;;;;;;;1497228;39;20299;-60
2021/06/22 00:56:13;;;;;;;6.10;3.13;;;;;;;;;;1497390;39;20035;-61
2021/06/22 00:57:15;;;;;;;8.63;3.58;;;;;;;;;;1497430;39;20068;-61
2021/06/22 00:58:16;;;;;;;5.80;3.30;;;;;;;;;;1497259;39;20024;-59
2021/06/22 00:59:18;;;;;;;5.38;3.28;;;;;;;;;;1497237;39;20054;-61
2021/06/22 01:00:19;;;;;;;7.18;3.42;;;;;;;;;;1497386;39;20023;-60
2021/06/22 01:01:21;;;;;;;7.78;3.33;;;;;;;;;;1497293;39;20036;-61
2021/06/22 01:02:22;;;;;;;7.85;3.20;;;;;;;;;;1497099;39;20387;-60
2021/06/22 01:03:25;;;;;;;6.63;3.28;;;;;;;;;;1497495;39;20035;-61
2021/06/22 01:04:27;;;;;;;6.57;3.47;;;;;;;;;;1497196;39;20027;-60
2021/06/22 01:05:29;;;;;;;7.13;3.50;;;;;;;;;;1497439;39;20028;-61
2021/06/22 01:06:30;;;;;;;8.32;3.63;;;;;;;;;;1497414;39;20030;-61
2021/06/22 01:07:39;;;;;;;6.68;3.13;;;;;;;;;;1497390;39;20112;-61
2021/06/22 01:08:50;;;;;;;6.47;3.05;;;;;;;;;;1497321;39;20035;-60
2021/06/22 01:09:51;;;;;;;7.05;3.63;;;;;;;;;;1497054;39;20027;-60
2021/06/22 01:10:52;;;;;;;8.43;3.60;;;;;;;;;;1497161;39;20387;-60
2021/06/22 01:11:53;;;;;;;7.43;3.40;;;;;;;;;;1497135;39;20028;-61
2021/06/22 01:12:55;;;;;;;5.68;3.38;;;;;;;;;;1497135;39;20024;-61
2021/06/22 01:13:56;;;;;;;7.60;3.40;;;;;;;;;;1497278;39;20034;-61
2021/06/22 01:14:58;;;;;;;8.25;3.53;;;;;;;;;;1497261;39;20023;-61
2021/06/22 01:15:59;;;;;;;6.97;3.83;;;;;;;;;;1497077;39;20262;-61
2021/06/22 01:17:01;;;;;;;5.00;3.17;;;;;;;;;;1497350;39;20060;-60
2021/06/22 01:18:04;;;;;;;4.72;3.22;;;;;;;;;;1497043;39;20294;-61
2021/06/22 01:19:09;;;;;;;6.40;3.15;;;;;;;;;;1497250;39;20042;-60
2021/06/22 01:20:10;;;;;;;4.35;3.17;;;;;;;;;;1497164;39;20031;-61
2021/06/22 01:21:14;;;;;;;7.63;3.50;;;;;;;;;;1497153;39;20471;-61
2021/06/22 01:22:14;;;;;;;8.35;3.92;;;;;;;;;;1497210;39;20033;-61
2021/06/22 01:23:17;;;;;;;9.48;3.63;;;;;;;;;;1497135;39;20031;-61
2021/06/22 01:24:20;;;;;;;7.53;3.47;;;;;;;;;;1497029;39;20035;-61
2021/06/22 01:25:22;;;;;;;6.43;3.40;;;;;;;;;;1497125;39;20034;-61
2021/06/22 01:26:23;;;;;;;7.20;3.58;;;;;;;;;;1497239;39;20031;-61
2021/06/22 01:27:26;;;;;;;6.20;3.40;;;;;;;;;;1497139;39;20350;-60
2021/06/22 01:28:27;;;;;;;5.80;3.65;;;;;;;;;;1496966;39;20359;-60
2021/06/22 01:29:29;;;;;;;6.72;3.60;;;;;;;;;;1497140;39;20053;-61
2021/06/22 01:30:31;;;;;;;6.20;3.58;;;;;;;;;;1497039;39;20298;-61
2021/06/22 01:31:33;;;;;;;7.57;3.50;;;;;;;;;;1497090;39;20390;-60
2021/06/22 01:32:34;;;;;;;6.55;3.63;;;;;;;;;;1497033;39;20035;-60
2021/06/22 01:33:36;;;;;;;5.53;3.53;;;;;;;;;;1497169;39;20035;-61
2021/06/22 01:34:36;;;;;;;9.00;3.70;;;;;;;;;;1497133;39;20034;-62
2021/06/22 01:35:38;;;;;;;7.95;3.83;;;;;;;;;;1497277;39;20038;-60
2021/06/22 01:36:42;;;;;;;5.90;3.60;;;;;;;;;;1496911;39;20084;-61
2021/06/22 01:37:51;;;;;;;7.13;3.80;;;;;;;;;;1497371;39;20030;-61
2021/06/22 01:38:52;;;;;;;5.65;3.70;;;;;;;;;;1497039;39;20405;-60
2021/06/22 01:39:53;;;;;;;7.22;3.50;;;;;;;;;;1497102;39;20023;-61
2021/06/22 01:40:54;;;;;;;9.77;3.72;;;;;;;;;;1497143;39;20039;-61
2021/06/22 01:41:56;;;;;;;7.53;3.67;;;;;;;;;;1497152;39;20031;-61
2021/06/22 01:42:58;;;;;;;6.88;3.53;;;;;;;;;;1496985;39;20398;-61
2021/06/22 01:44:00;;;;;;;6.28;3.30;;;;;;;;;;1496996;39;20043;-61
2021/06/22 01:45:01;;;;;;;7.50;3.42;;;;;;;;;;1497032;39;20038;-61
2021/06/22 01:46:04;;;;;;;4.85;3.28;;;;;;;;;;1497240;39;20073;-61
2021/06/22 01:47:05;;;;;;;8.18;3.60;;;;;;;;;;1497160;39;20027;-61
2021/06/22 01:48:07;;;;;;;9.05;3.35;;;;;;;;;;1497271;39;20031;-59
2021/06/22 01:49:08;;;;;;;8.13;3.50;;;;;;;;;;1497069;39;20109;-60
2021/06/22 01:50:10;;;;;;;7.30;3.13;;;;;;;;;;1497169;39;20369;-61
2021/06/22 01:51:11;;;;;;;7.63;3.72;;;;;;;;;;1497234;39;20030;-60
2021/06/22 01:52:16;;;;;;;5.90;3.08;;;;;;;;;;1497248;39;20318;-60
2021/06/22 01:53:18;;;;;;;6.38;3.40;;;;;;;;;;1497152;39;20027;-61
2021/06/22 01:54:20;;;;;;;8.00;3.40;;;;;;;;;;1497083;39;20295;-61
2021/06/22 01:55:38;;;;;;;5.07;3.10;;;;;;;;;;1496960;39;20035;-61
2021/06/22 01:56:45;;;;;;;6.80;3.47;;;;;;;;;;1497073;39;20035;-61
2021/06/22 01:57:47;;;;;;;7.15;3.08;;;;;;;;;;1497327;39;20039;-61
2021/06/22 01:58:48;;;;;;;5.95;3.55;;;;;;;;;;1496881;39;20406;-61
2021/06/22 01:59:50;;;;;;;6.18;3.00;;;;;;;;;;1497230;39;20067;-61
2021/06/22 02:00:53;;;;;;;6.97;3.38;;;;;;;;;;1496491;39;20028;-61
2021/06/22 02:01:55;;;;;;;5.10;2.95;;;;;;;;;;1497097;39;20037;-60
2021/06/22 02:02:56;;;;;;;7.78;3.67;;;;;;;;;;1496979;39;20023;-60
2021/06/22 02:03:58;;;;;;;10.35;3.25;;;;;;;;;;1497275;39;20027;-61
2021/06/22 02:05:00;;;;;;;7.50;3.05;;;;;;;;;;1497196;39;20027;-61
2021/06/22 02:06:02;;;;;;;5.32;3.10;;;;;;;;;;1497097;39;20020;-61
2021/06/22 02:07:03;;;;;;;7.90;3.13;;;;;;;;;;1496938;39;20027;-61
2021/06/22 02:08:06;;;;;;;7.53;3.20;;;;;;;;;;1497013;39;20397;-61
2021/06/22 02:09:07;;;;;;;7.50;3.50;;;;;;;;;;1497058;39;20046;-60
2021/06/22 02:10:10;;;;;;;6.75;3.35;;;;;;;;;;1497029;39;20034;-61
2021/06/22 02:11:11;;;;;;;6.47;2.97;;;;;;;;;;1496900;39;20031;-60
2021/06/22 02:12:13;;;;;;;8.98;3.17;;;;;;;;;;1497053;39;20028;-61
2021/06/22 02:13:14;;;;;;;4.45;3.00;;;;;;;;;;1496927;39;20024;-61
2021/06/22 02:14:25;;;;;;;;;;;;;;;;;;;;;
2021/06/22 02:15:28;;;;;;;6.13;2.92;;;;;;;;;;1497095;39;20030;-60
2021/06/22 02:16:29;;;;;;;5.40;3.10;;;;;;;;;;1497364;39;20028;-60
2021/06/22 02:17:31;;;;;;;5.28;2.90;;;;;;;;;;1497128;39;20031;-56
2021/06/22 02:18:32;;;;;;;6.25;3.05;;;;;;;;;;1496858;39;20383;-57
2021/06/22 02:19:34;;;;;;;5.55;3.10;;;;;;;;;;1497158;39;20031;-56
2021/06/22 02:20:37;;;;;;;7.35;3.20;;;;;;;;;;1496971;39;20034;-57
2021/06/22 02:21:38;;;;;;;5.63;3.05;;;;;;;;;;1497012;39;20104;-57
2021/06/22 02:22:39;;;;;;;5.30;2.90;;;;;;;;;;1496868;39;20027;-56
2021/06/22 02:23:42;;;;;;;7.55;3.03;;;;;;;;;;1496993;39;20031;-56
2021/06/22 02:24:43;;;;;;;5.55;3.08;;;;;;;;;;1497094;39;20067;-57
2021/06/22 02:25:45;;;;;;;8.43;3.20;;;;;;;;;;1496928;39;20279;-55
2021/06/22 02:26:46;;;;;;;7.82;3.05;;;;;;;;;;1496965;39;20035;-57
2021/06/22 02:27:48;;;;;;;6.10;2.70;;;;;;;;;;1497055;39;20030;-56
2021/06/22 02:28:49;;;;;;;5.50;3.17;;;;;;;;;;1496902;39;20042;-57
2021/06/22 02:29:51;;;;;;;6.28;3.13;;;;;;;;;;1496899;39;20027;-57
2021/06/22 02:30:55;;;;;;;6.85;3.28;;;;;;;;;;1496997;39;20027;-57
2021/06/22 02:31:56;;;;;;;7.57;3.22;;;;;;;;;;1496904;39;20023;-57
2021/06/22 02:32:57;;;;;;;7.00;3.20;;;;;;;;;;1497057;39;20027;-57
2021/06/22 02:33:59;;;;;;;7.63;3.20;;;;;;;;;;1496813;39;20307;-56
2021/06/22 02:35:00;;;;;;;8.20;2.95;;;;;;;;;;1496949;39;20268;-56
2021/06/22 02:36:02;;;;;;;5.00;2.90;;;;;;;;;;1496881;39;20054;-57
2021/06/22 02:37:03;;;;;;;7.28;3.05;;;;;;;;;;1497004;39;20023;-57
2021/06/22 02:38:05;;;;;;;6.78;2.60;;;;;;;;;;1496900;39;20027;-57
2021/06/22 02:39:07;;;;;;;5.20;2.90;;;;;;;;;;1497094;39;20083;-57
2021/06/22 02:40:11;;;;;;;7.93;2.92;;;;;;;;;;1496978;39;20067;-55
2021/06/22 02:41:12;;;;;;;6.78;3.03;;;;;;;;;;1496911;39;20024;-56
2021/06/22 02:42:14;;;;;;;6.32;3.20;;;;;;;;;;1497196;39;20023;-56
2021/06/22 02:43:15;;;;;;;7.47;3.10;;;;;;;;;;1497117;39;20024;-57
2021/06/22 02:44:17;;;;;;;5.60;2.83;;;;;;;;;;1497021;39;20453;-57
2021/06/22 02:45:18;;;;;;;5.88;3.20;;;;;;;;;;1497138;39;20028;-57
2021/06/22 02:46:20;;;;;;;5.90;2.80;;;;;;;;;;1496843;39;20028;-56
2021/06/22 02:47:21;;;;;;;5.28;3.15;;;;;;;;;;1496884;39;20338;-57
2021/06/22 02:48:23;;;;;;;5.75;3.00;;;;;;;;;;1496966;39;20027;-56
2021/06/22 02:49:24;;;;;;;7.53;3.28;;;;;;;;;;1496836;39;20050;-56
2021/06/22 02:50:25;;;;;;;6.82;3.05;;;;;;;;;;1497132;39;20031;-57
2021/06/22 02:51:26;;;;;;;5.30;2.60;;;;;;;;;;1496947;39;20031;-56
2021/06/22 02:52:28;;;;;;;8.50;3.10;;;;;;;;;;1497131;39;20034;-56
2021/06/22 02:53:29;;;;;;;5.80;2.80;;;;;;;;;;1497029;39;20031;-56
2021/06/22 02:54:37;;;;;;;7.32;2.72;;;;;;;;;;1496834;39;20315;-56
2021/06/22 02:55:39;;;;;;;6.47;3.10;;;;;;;;;;1496998;39;20080;-57
2021/06/22 02:56:41;;;;;;;10.57;3.50;;;;;;;;;;1496757;39;20329;-57
2021/06/22 02:57:41;;;;;;;8.95;3.38;;;;;;;;;;1496920;39;20046;-57
2021/06/22 02:58:43;;;;;;;7.53;2.97;;;;;;;;;;1496853;39;20035;-57
2021/06/22 02:59:44;;;;;;;7.82;3.10;;;;;;;;;;1496744;39;20039;-56
2021/06/22 03:00:47;;;;;;;5.88;3.15;;;;;;;;;;1496866;39;20031;-56
2021/06/22 03:01:48;;;;;;;5.35;2.95;;;;;;;;;;1496962;39;20031;-56
2021/06/22 03:02:50;;;;;;;5.13;3.05;;;;;;;;;;1496973;39;20291;-57
2021/06/22 03:03:51;;;;;;;7.00;2.75;;;;;;;;;;1496719;39;20296;-57
2021/06/22 03:04:52;;;;;;;6.45;2.83;;;;;;;;;;1496853;39;20081;-56
2021/06/22 03:05:53;;;;;;;4.90;2.55;;;;;;;;;;1496733;39;20276;-58
2021/06/22 03:06:56;;;;;;;6.07;2.83;;;;;;;;;;1496893;39;20030;-56
2021/06/22 03:07:57;;;;;;;5.90;2.92;;;;;;;;;;1496729;39;20390;-57
2021/06/22 03:08:59;;;;;;;6.95;3.03;;;;;;;;;;1496819;39;20039;-57
2021/06/22 03:10:01;;;;;;;6.38;2.80;;;;;;;;;;1496797;39;20035;-57
2021/06/22 03:11:03;;;;;;;6.82;2.70;;;;;;;;;;1496990;39;20027;-56
2021/06/22 03:12:05;;;;;;;4.57;2.92;;;;;;;;;;1496718;39;20031;-57
2021/06/22 03:13:06;;;;;;;6.18;3.15;;;;;;;;;;1497263;39;20031;-57
2021/06/22 03:14:07;;;;;;;5.28;3.20;;;;;;;;;;1497587;39;20031;-57
2021/06/22 03:15:12;;;;;;;5.57;2.55;;;;;;;;;;1497671;39;20039;-57
2021/06/22 03:16:13;;;;;;;8.00;2.88;;;;;;;;;;1497447;39;20398;-57
2021/06/22 03:17:15;;;;;;;5.70;2.67;;;;;;;;;;1497466;39;20031;-56
2021/06/22 03:18:16;;;;;;;5.10;2.70;;;;;;;;;;1497586;39;20035;-57
2021/06/22 03:19:18;;;;;;;7.05;2.83;;;;;;;;;;1497623;39;20032;-56
2021/06/22 03:20:19;;;;;;;6.75;3.17;;;;;;;;;;1497577;39;20034;-57
2021/06/22 03:21:21;;;;;;;5.60;2.95;;;;;;;;;;1497720;39;20294;-56
2021/06/22 03:22:22;;;;;;;8.25;2.90;;;;;;;;;;1497563;39;20034;-57
2021/06/22 03:23:24;;;;;;;3.17;2.70;;;;;;;;;;1497409;39;20027;-56
2021/06/22 03:24:25;;;;;;;6.18;3.00;;;;;;;;;;1497552;39;20035;-56
2021/06/22 03:25:28;;;;;;;8.50;2.60;;;;;;;;;;1497636;39;20063;-57
2021/06/22 03:26:29;;;;;;;6.85;3.03;;;;;;;;;;1497338;39;20386;-57
2021/06/22 03:27:30;;;;;;;7.78;2.97;;;;;;;;;;1497331;39;20029;-56
2021/06/22 03:28:32;;;;;;;6.38;2.90;;;;;;;;;;1497497;39;20023;-57
2021/06/22 03:29:33;;;;;;;5.50;2.78;;;;;;;;;;1497344;39;20028;-56
2021/06/22 03:30:35;;;;;;;6.82;2.60;;;;;;;;;;1497413;39;20027;-57
2021/06/22 03:31:36;;;;;;;7.90;2.83;;;;;;;;;;1497529;39;20023;-57
2021/06/22 03:32:38;;;;;;;6.35;2.95;;;;;;;;;;1497326;39;20071;-57
2021/06/22 03:33:39;;;;;;;6.90;2.65;;;;;;;;;;1497290;39;20062;-57
2021/06/22 03:34:41;;;;;;;5.60;2.72;;;;;;;;;;1497402;39;20024;-58
2021/06/22 03:35:42;;;;;;;6.57;2.88;;;;;;;;;;1497367;39;20027;-57
2021/06/22 03:36:44;;;;;;;6.70;2.58;;;;;;;;;;1497409;39;20023;-57
2021/06/22 03:37:45;;;;;;;4.03;2.30;;;;;;;;;;1497302;39;20504;-57
2021/06/22 03:38:46;;;;;;;4.95;2.75;;;;;;;;;;1497378;39;20047;-57
2021/06/22 03:39:47;;;;;;;6.20;2.88;;;;;;;;;;1497353;39;20276;-56
2021/06/22 03:40:51;;;;;;;5.88;2.70;;;;;;;;;;1497661;39;20031;-56
2021/06/22 03:41:51;;;;;;;7.97;2.88;;;;;;;;;;1497348;39;20031;-56
2021/06/22 03:42:53;;;;;;;9.27;2.90;;;;;;;;;;1497373;39;20036;-57
2021/06/22 03:43:56;;;;;;;5.63;2.78;;;;;;;;;;1497465;39;20107;-56
2021/06/22 03:44:58;;;;;;;8.40;3.10;;;;;;;;;;1497582;39;20031;-56
2021/06/22 03:45:59;;;;;;;7.95;2.88;;;;;;;;;;1497398;39;20030;-57
2021/06/22 03:47:01;;;;;;;5.82;2.78;;;;;;;;;;1497541;39;20034;-56
2021/06/22 03:48:04;;;;;;;9.25;3.28;;;;;;;;;;1497575;39;20057;-56
2021/06/22 03:49:06;;;;;;;11.30;2.75;;;;;;;;;;1497574;39;20051;-57
2021/06/22 03:50:08;;;;;;;6.88;3.17;;;;;;;;;;1496813;39;20028;-56
2021/06/22 03:51:10;;;;;;;5.20;2.40;;;;;;;;;;1496881;39;20093;-57
2021/06/22 03:52:11;;;;;;;7.93;2.80;;;;;;;;;;1497287;39;20306;-57
2021/06/22 03:53:13;;;;;;;5.32;2.55;;;;;;;;;;1497588;39;20034;-56
2021/06/22 03:54:14;;;;;;;6.35;2.95;;;;;;;;;;1497384;39;20031;-56
2021/06/22 03:55:29;;;;;;;7.93;2.55;;;;;;;;;;1497254;39;20375;-56
2021/06/22 03:56:32;;;;;;;11.70;3.38;;;;;;;;;;1497510;39;20027;-56
2021/06/22 03:57:33;;;;;;;5.85;2.92;;;;;;;;;;1497310;39;20295;-57
2021/06/22 03:58:35;;;;;;;7.38;3.03;;;;;;;;;;1497364;39;20311;-56
2021/06/22 03:59:36;;;;;;;9.00;3.10;;;;;;;;;;1497359;39;20035;-56
2021/06/22 04:00:38;;;;;;;5.95;2.88;;;;;;;;;;1497301;39;20031;-54
2021/06/22 04:01:40;;;;;;;4.80;2.70;;;;;;;;;;1497525;39;20027;-57
2021/06/22 04:02:40;;;;;;;7.63;2.83;;;;;;;;;;1497492;39;20027;-57
2021/06/22 04:03:42;;;;;;;6.40;3.20;;;;;;;;;;1497438;39;20314;-57
2021/06/22 04:04:43;;;;;;;4.57;3.00;;;;;;;;;;1497481;39;20027;-56
2021/06/22 04:05:45;;;;;;;7.88;3.35;;;;;;;;;;1497483;39;20035;-56
2021/06/22 04:06:46;;;;;;;4.43;2.58;;;;;;;;;;1497344;39;20031;-56
2021/06/22 04:07:47;;;;;;;7.47;3.20;;;;;;;;;;1497501;39;20023;-57
2021/06/22 04:08:48;;;;;;;5.55;3.40;;;;;;;;;;1497604;39;20050;-57
2021/06/22 04:09:50;;;;;;;7.63;3.10;;;;;;;;;;1497421;39;20031;-57
2021/06/22 04:10:51;;;;;;;6.53;3.10;;;;;;;;;;1497446;39;20031;-56
2021/06/22 04:11:56;;;;;;;5.25;3.17;;;;;;;;;;1497507;39;20035;-56
2021/06/22 04:12:58;;;;;;;8.77;3.45;;;;;;;;;;1497158;39;20020;-56
2021/06/22 04:14:00;;;;;;;5.72;2.65;;;;;;;;;;1497543;39;20107;-57
2021/06/22 04:15:01;;;;;;;7.28;3.10;;;;;;;;;;1497265;39;20387;-57
2021/06/22 04:16:03;;;;;;;5.53;3.05;;;;;;;;;;1497291;39;20034;-57
2021/06/22 04:17:04;;;;;;;5.93;2.97;;;;;;;;;;1497158;39;20129;-56
2021/06/22 04:18:08;;;;;;;5.22;2.63;;;;;;;;;;1497333;39;20095;-57
2021/06/22 04:19:09;;;;;;;5.50;2.67;;;;;;;;;;1497331;39;20036;-57
2021/06/22 04:20:12;;;;;;;5.55;2.78;;;;;;;;;;1497418;39;20319;-56
2021/06/22 04:21:13;;;;;;;7.20;2.60;;;;;;;;;;1497378;39;20302;-56
2021/06/22 04:22:15;;;;;;;4.55;2.70;;;;;;;;;;1497316;39;20035;-57
2021/06/22 04:23:16;;;;;;;7.20;2.75;;;;;;;;;;1497042;39;20035;-57
2021/06/22 04:24:18;;;;;;;7.43;2.90;;;;;;;;;;1497105;39;20023;-56
2021/06/22 04:25:19;;;;;;;10.05;3.38;;;;;;;;;;1497146;39;20054;-56
2021/06/22 04:26:21;;;;;;;6.03;3.03;;;;;;;;;;1497285;39;20027;-57
2021/06/22 04:27:23;;;;;;;6.00;2.90;;;;;;;;;;1497208;39;20391;-57
2021/06/22 04:28:25;;;;;;;5.75;2.80;;;;;;;;;;1497452;39;20023;-57
2021/06/22 04:29:26;;;;;;;8.05;3.25;;;;;;;;;;1497359;39;20031;-57
2021/06/22 04:30:28;;;;;;;6.35;2.95;;;;;;;;;;1497306;39;20034;-56
2021/06/22 04:31:29;;;;;;;7.05;3.20;;;;;;;;;;1497285;39;20028;-56
2021/06/22 04:32:30;;;;;;;8.38;3.38;;;;;;;;;;1497561;39;20031;-56
2021/06/22 04:33:31;;;;;;;7.00;2.95;;;;;;;;;;1497415;39;20034;-56
2021/06/22 04:34:33;;;;;;;5.45;2.92;;;;;;;;;;1497435;39;20027;-56
2021/06/22 04:35:36;;;;;;;4.63;2.85;;;;;;;;;;1497396;39;20023;-57
2021/06/22 04:36:37;;;;;;;3.90;2.97;;;;;;;;;;1497359;39;20031;-57
2021/06/22 04:37:40;;;;;;;5.03;2.58;;;;;;;;;;1497224;39;20042;-56
2021/06/22 04:38:41;;;;;;;6.75;2.90;;;;;;;;;;1497351;39;20027;-56
2021/06/22 04:39:43;;;;;;;6.75;2.80;;;;;;;;;;1497524;39;20031;-57
2021/06/22 04:40:44;;;;;;;5.60;3.15;;;;;;;;;;1497467;39;20107;-56
2021/06/22 04:41:45;;;;;;;8.57;3.15;;;;;;;;;;1497446;39;20141;-57
2021/06/22 04:42:48;;;;;;;5.80;2.97;;;;;;;;;;1497542;39;20042;-57
2021/06/22 04:43:50;;;;;;;4.85;2.70;;;;;;;;;;1497197;39;20401;-57
2021/06/22 04:44:52;;;;;;;7.93;3.00;;;;;;;;;;1497237;39;20028;-56
2021/06/22 04:45:54;;;;;;;5.22;2.90;;;;;;;;;;1497431;39;20043;-56
2021/06/22 04:46:54;;;;;;;7.65;3.20;;;;;;;;;;1497378;39;20104;-57
2021/06/22 04:47:57;;;;;;;8.23;3.17;;;;;;;;;;1497592;39;20115;-57
2021/06/22 04:48:57;;;;;;;9.52;3.22;;;;;;;;;;1497238;39;20417;-56
2021/06/22 04:50:00;;;;;;;10.88;3.10;;;;;;;;;;1497154;39;20031;-56
2021/06/22 04:51:00;;;;;;;7.07;2.95;;;;;;;;;;1497300;39;20031;-56
2021/06/22 04:52:02;;;;;;;9.88;3.42;;;;;;;;;;1497397;39;20303;-57
2021/06/22 04:53:03;;;;;;;10.15;3.28;;;;;;;;;;1497254;39;20035;-57
2021/06/22 04:54:07;;;;;;;6.75;2.90;;;;;;;;;;1497197;39;20409;-57
2021/06/22 04:55:12;;;;;;;7.22;3.40;;;;;;;;;;1497139;39;20028;-56
2021/06/22 04:56:14;;;;;;;7.05;3.13;;;;;;;;;;1497370;39;20070;-56
2021/06/22 04:57:19;;;;;;;6.82;2.88;;;;;;;;;;1497015;39;20028;-56
2021/06/22 04:58:22;;;;;;;7.15;3.53;;;;;;;;;;1497437;39;20036;-58
2021/06/22 04:59:23;;;;;;;5.95;3.03;;;;;;;;;;1497366;39;20031;-57
2021/06/22 05:00:27;;;;;;;8.15;3.50;;;;;;;;;;1497078;39;20311;-57
2021/06/22 05:01:28;;;;;;;6.85;3.13;;;;;;;;;;1497107;39;20386;-57
2021/06/22 05:02:29;;;;;;;6.45;3.38;;;;;;;;;;1497348;39;20038;-56
2021/06/22 05:03:31;;;;;;;6.53;3.15;;;;;;;;;;1497157;39;20027;-56
2021/06/22 05:04:35;;;;;;;10.40;3.90;;;;;;;;;;1497453;39;20038;-57
2021/06/22 05:05:36;;;;;;;7.15;3.78;;;;;;;;;;1497343;39;20034;-57
2021/06/22 05:06:37;;;;;;;5.72;3.15;;;;;;;;;;1497568;39;20298;-56
2021/06/22 05:07:38;;;;;;;7.75;3.03;;;;;;;;;;1497390;39;20030;-56
2021/06/22 05:08:40;;;;;;;5.82;3.20;;;;;;;;;;1497307;39;20038;-57
2021/06/22 05:09:41;;;;;;;7.93;3.20;;;;;;;;;;1497215;39;20030;-57
2021/06/22 05:10:43;;;;;;;6.97;3.10;;;;;;;;;;1497443;39;20023;-56
2021/06/22 05:11:44;;;;;;;10.50;3.50;;;;;;;;;;1497306;39;20031;-57
2021/06/22 05:12:46;;;;;;;8.65;3.50;;;;;;;;;;1497368;39;20028;-57
2021/06/22 05:13:51;;;;;;;7.18;3.42;;;;;;;;;;1497079;39;20059;-57
2021/06/22 05:14:52;;;;;;;10.02;3.90;;;;;;;;;;1497269;39;20036;-60
2021/06/22 05:15:54;;;;;;;9.55;3.08;;;;;;;;;;1497261;39;20023;-62
2021/06/22 05:16:54;;;;;;;5.30;2.88;;;;;;;;;;1497278;39;20023;-62
2021/06/22 05:17:56;;;;;;;6.65;3.40;;;;;;;;;;1497170;39;20039;-61
2021/06/22 05:18:57;;;;;;;4.75;3.22;;;;;;;;;;1497039;39;20303;-60
2021/06/22 05:19:59;;;;;;;7.05;3.35;;;;;;;;;;1497270;39;20039;-62
2021/06/22 05:21:00;;;;;;;6.18;3.10;;;;;;;;;;1497213;39;20031;-62
2021/06/22 05:22:02;;;;;;;6.40;3.17;;;;;;;;;;1497361;39;20283;-62
2021/06/22 05:23:03;;;;;;;5.45;3.05;;;;;;;;;;1497324;39;20039;-62
2021/06/22 05:24:05;;;;;;;7.30;3.90;;;;;;;;;;1497192;39;20291;-60
2021/06/22 05:25:07;;;;;;;6.63;3.70;;;;;;;;;;1497114;39;20049;-62
2021/06/22 05:26:09;;;;;;;7.15;3.97;;;;;;;;;;1497325;39;20067;-61
2021/06/22 05:27:12;;;;;;;7.28;3.90;;;;;;;;;;1497052;39;20043;-62
2021/06/22 05:28:14;;;;;;;8.35;4.10;;;;;;;;;;1497315;39;20027;-62
2021/06/22 05:29:16;;;;;;;9.35;4.20;;;;;;;;;;1497125;39;20385;-61
2021/06/22 05:30:18;;;;;;;7.03;4.60;;;;;;;;;;1497132;39;20027;-61
2021/06/22 05:31:19;;;;;;;8.27;3.95;;;;;;;;;;1496971;39;20035;-62
2021/06/22 05:32:21;;;;;;;7.93;4.30;;;;;;;;;;1497261;39;20030;-62
2021/06/22 05:33:23;;;;;;;7.43;4.53;;;;;;;;;;1497132;39;20031;-62
2021/06/22 05:34:24;;;;;;;6.18;3.88;;;;;;;;;;1497202;39;20036;-61
2021/06/22 05:35:26;;;;;;;8.43;4.18;;;;;;;;;;1496604;39;20044;-61
2021/06/22 05:36:28;;;;;;;9.18;4.60;;;;;;;;;;1497062;39;20030;-62
2021/06/22 05:37:29;;;;;;;6.03;3.60;;;;;;;;;;1496991;39;20357;-62
2021/06/22 05:38:31;;;;;;;8.05;4.68;;;;;;;;;;1497084;39;20031;-61
2021/06/22 05:39:31;;;;;;;8.40;4.65;;;;;;;;;;1497149;39;20034;-62
2021/06/22 05:40:33;;;;;;;9.20;4.60;;;;;;;;;;1497030;39;20050;-62
2021/06/22 05:41:34;;;;;;;9.50;4.63;;;;;;;;;;1496993;39;20031;-62
2021/06/22 05:42:36;;;;;;;7.35;4.18;;;;;;;;;;1497056;39;20027;-62
2021/06/22 05:43:37;;;;;;;9.48;4.72;;;;;;;;;;1497352;39;20035;-62
2021/06/22 05:44:40;;;;;;;9.70;4.97;;;;;;;;;;1497323;39;20080;-62
2021/06/22 05:45:41;;;;;;;8.00;4.78;;;;;;;;;;1497100;39;20387;-62
2021/06/22 05:46:43;;;;;;;9.02;4.47;;;;;;;;;;1497287;39;20031;-62
2021/06/22 05:47:44;;;;;;;7.50;4.93;;;;;;;;;;1497162;39;20023;-62
2021/06/22 05:48:46;;;;;;;10.02;4.90;;;;;;;;;;1497127;39;20035;-61
2021/06/22 05:49:46;;;;;;;8.38;4.10;;;;;;;;;;1497158;39;20027;-62
2021/06/22 05:50:48;;;;;;;8.52;5.20;;;;;;;;;;1497030;39;20298;-62
2021/06/22 05:51:50;;;;;;;8.13;5.03;;;;;;;;;;1496959;39;20383;-62
2021/06/22 05:52:53;;;;;;;8.38;4.53;;;;;;;;;;1497155;39;20056;-60
2021/06/22 05:53:54;;;;;;;7.80;4.40;;;;;;;;;;1497116;39;20031;-62
2021/06/22 05:54:56;;;;;;;7.13;4.88;;;;;;;;;;1497339;39;20031;-62
2021/06/22 05:55:57;;;;;;;9.38;4.88;;;;;;;;;;1497157;39;20032;-62
2021/06/22 05:56:59;;;;;;;8.10;4.65;;;;;;;;;;1497027;39;20024;-62
2021/06/22 05:58:00;;;;;;;8.43;4.97;;;;;;;;;;1497095;39;20031;-62
2021/06/22 05:59:02;;;;;;;8.05;4.78;;;;;;;;;;1496912;39;20422;-61
2021/06/22 06:00:06;;;;;;;7.43;4.75;;;;;;;;;;1496927;39;20030;-62
2021/06/22 06:01:08;;;;;;;8.88;4.38;;;;;;;;;;1497198;39;20046;-61
2021/06/22 06:02:09;;;;;;;8.95;3.65;;;;;;;;;;1496938;39;20027;-62
2021/06/22 06:03:11;;;;;;;7.40;4.55;;;;;;;;;;1497234;39;20027;-62
2021/06/22 06:04:11;;;;;;;10.85;4.63;;;;;;;;;;1497134;39;20035;-62
2021/06/22 06:05:14;;;;;;;7.90;4.35;;;;;;;;;;1497155;39;20046;-62
2021/06/22 06:06:15;;;;;;;7.45;3.80;;;;;;;;;;1497139;39;20030;-62
2021/06/22 06:07:17;;;;;;;7.65;3.88;;;;;;;;;;1497072;39;20024;-62
2021/06/22 06:08:17;;;;;;;6.70;3.85;;;;;;;;;;1497068;39;20145;-62
2021/06/22 06:09:19;;;;;;;8.32;4.18;;;;;;;;;;1496956;39;20108;-62
2021/06/22 06:10:21;;;;;;;6.18;3.63;;;;;;;;;;1497017;39;20374;-62
2021/06/22 06:11:23;;;;;;;7.50;3.90;;;;;;;;;;1497334;39;20029;-60